createdAt,value
2019-03-17T00:00:17.098Z,8.64
2019-03-17T00:02:45.784Z,8.63
2019-03-17T00:05:14.494Z,8.74
2019-03-17T00:07:43.069Z,8.73
2019-03-17T00:10:11.971Z,8.96
2019-03-17T00:12:40.472Z,8.94
2019-03-17T00:15:09.225Z,8.63
2019-03-17T00:17:37.917Z,8.68
2019-03-17T00:20:07.633Z,8.77
2019-03-17T00:22:36.355Z,8.41
2019-03-17T00:25:09.479Z,8.44
2019-03-17T00:27:36.397Z,8.13
2019-03-17T00:30:11.919Z,8.15
2019-03-17T00:32:40.457Z,8.12
2019-03-17T00:35:09.089Z,8.13
2019-03-17T00:37:37.726Z,7.97
2019-03-17T00:40:10.736Z,8.05
2019-03-17T00:42:39.508Z,8.31
2019-03-17T00:45:12.135Z,8.33
2019-03-17T00:47:40.751Z,8.00
2019-03-17T00:50:11.200Z,8.11
2019-03-17T00:52:39.838Z,8.28
2019-03-17T00:55:08.688Z,8.13
2019-03-17T00:57:37.329Z,8.06
2019-03-17T01:00:11.626Z,7.77
2019-03-17T01:02:40.315Z,7.40
2019-03-17T01:05:09.034Z,7.51
2019-03-17T01:07:37.672Z,7.28
2019-03-17T01:10:08.563Z,7.24
2019-03-17T01:12:37.131Z,7.26
2019-03-17T01:15:10.600Z,7.48
2019-03-17T01:17:39.303Z,7.51
2019-03-17T01:20:09.740Z,7.39
2019-03-17T01:22:38.317Z,7.43
2019-03-17T01:25:09.001Z,7.98
2019-03-17T01:27:37.647Z,7.95
2019-03-17T01:30:09.070Z,7.86
2019-03-17T01:32:38.209Z,7.47
2019-03-17T01:35:09.843Z,7.05
2019-03-17T01:37:38.386Z,6.94
2019-03-17T01:40:09.350Z,6.94
2019-03-17T01:42:37.996Z,7.09
2019-03-17T01:45:08.448Z,6.97
2019-03-17T01:47:37.263Z,6.93
2019-03-17T01:50:07.408Z,7.09
2019-03-17T01:52:36.057Z,7.53
2019-03-17T01:55:06.051Z,7.63
2019-03-17T01:57:34.699Z,7.29
2019-03-17T02:00:03.270Z,7.34
2019-03-17T02:02:31.951Z,7.10
2019-03-17T02:05:00.515Z,6.91
2019-03-17T02:07:29.094Z,6.93
2019-03-17T02:09:57.703Z,6.89
2019-03-17T02:12:26.267Z,6.75
2019-03-17T02:14:54.837Z,7.02
2019-03-17T02:17:23.522Z,6.87
2019-03-17T02:19:52.161Z,6.92
2019-03-17T02:22:22.262Z,6.73
2019-03-17T02:24:51.029Z,6.83
2019-03-17T02:27:19.676Z,6.76
2019-03-17T02:29:48.256Z,7.02
2019-03-17T02:32:16.873Z,6.76
2019-03-17T02:34:45.438Z,6.57
2019-03-17T02:37:14.067Z,6.69
2019-03-17T02:39:42.760Z,6.62
2019-03-17T02:42:11.324Z,6.42
2019-03-17T02:44:39.911Z,6.51
2019-03-17T02:47:08.511Z,6.45
2019-03-17T02:49:37.129Z,6.39
2019-03-17T02:52:05.804Z,6.26
2019-03-17T02:54:34.491Z,6.36
2019-03-17T02:57:03.128Z,6.35
2019-03-17T02:59:31.779Z,6.44
2019-03-17T03:02:00.488Z,6.41
2019-03-17T03:04:29.060Z,6.33
2019-03-17T03:06:57.567Z,6.45
2019-03-17T03:09:26.199Z,6.67
2019-03-17T03:11:54.836Z,6.49
2019-03-17T03:14:23.479Z,6.58
2019-03-17T03:16:52.099Z,7.02
2019-03-17T03:19:20.741Z,6.58
2019-03-17T03:21:49.385Z,6.23
2019-03-17T03:24:18.101Z,6.83
2019-03-17T03:26:46.646Z,6.34
2019-03-17T03:29:15.289Z,6.55
2019-03-17T03:31:43.846Z,6.67
2019-03-17T03:34:12.502Z,6.70
2019-03-17T03:36:41.141Z,6.56
2019-03-17T03:39:09.749Z,6.18
2019-03-17T03:41:38.415Z,6.06
2019-03-17T03:44:07.066Z,5.80
2019-03-17T03:46:35.741Z,5.93
2019-03-17T03:49:04.486Z,6.20
2019-03-17T03:51:33.072Z,6.02
2019-03-17T03:54:01.688Z,5.94
2019-03-17T03:56:30.334Z,5.96
2019-03-17T03:58:59.080Z,5.73
2019-03-17T04:01:27.686Z,5.64
2019-03-17T04:03:56.331Z,5.47
2019-03-17T04:06:26.678Z,5.47
2019-03-17T04:08:55.333Z,5.47
2019-03-17T04:11:23.956Z,5.61
2019-03-17T04:13:52.529Z,5.37
2019-03-17T04:16:21.149Z,5.36
2019-03-17T04:18:49.805Z,5.10
2019-03-17T04:21:18.477Z,5.02
2019-03-17T04:23:47.162Z,5.01
2019-03-17T04:26:15.813Z,4.67
2019-03-17T04:28:44.396Z,4.73
2019-03-17T04:31:14.726Z,4.82
2019-03-17T04:33:43.385Z,5.11
2019-03-17T04:36:11.891Z,5.08
2019-03-17T04:38:43.645Z,5.45
2019-03-17T04:41:11.210Z,5.45
2019-03-17T04:43:39.863Z,5.58
2019-03-17T04:46:08.549Z,5.62
2019-03-17T04:48:37.222Z,6.18
2019-03-17T04:51:05.842Z,6.02
2019-03-17T04:53:34.706Z,5.92
2019-03-17T04:56:03.345Z,5.59
2019-03-17T04:58:31.932Z,5.68
2019-03-17T05:01:00.606Z,5.56
2019-03-17T05:03:29.182Z,5.66
2019-03-17T05:05:57.852Z,5.53
2019-03-17T05:08:26.438Z,5.34
2019-03-17T05:10:55.822Z,5.21
2019-03-17T05:13:24.402Z,5.21
2019-03-17T05:15:53.134Z,5.24
2019-03-17T05:18:21.741Z,4.87
2019-03-17T05:20:50.387Z,4.98
2019-03-17T05:23:18.971Z,5.10
2019-03-17T05:25:47.599Z,5.15
2019-03-17T05:28:15.996Z,5.15
2019-03-17T05:30:44.645Z,5.03
2019-03-17T05:33:14.801Z,5.03
2019-03-17T05:35:43.380Z,5.35
2019-03-17T05:38:12.026Z,5.76
2019-03-17T05:40:40.716Z,6.29
2019-03-17T05:43:09.301Z,6.42
2019-03-17T05:45:37.818Z,6.61
2019-03-17T05:48:06.499Z,7.01
2019-03-17T05:50:35.143Z,7.61
2019-03-17T05:53:03.779Z,7.68
2019-03-17T05:55:32.804Z,7.92
2019-03-17T05:58:01.448Z,8.38
2019-03-17T06:00:30.093Z,8.78
2019-03-17T06:02:58.716Z,8.49
2019-03-17T06:05:27.277Z,8.65
2019-03-17T06:07:55.917Z,8.60
2019-03-17T06:10:24.607Z,8.97
2019-03-17T06:12:53.267Z,8.83
2019-03-17T06:15:21.815Z,9.38
2019-03-17T06:17:50.663Z,9.71
2019-03-17T06:20:19.373Z,9.48
2019-03-17T06:22:48.034Z,9.88
2019-03-17T06:25:16.721Z,9.74
2019-03-17T06:27:45.372Z,10.31
2019-03-17T06:30:14.526Z,11.12
2019-03-17T06:32:43.160Z,10.61
2019-03-17T06:35:11.837Z,11.01
2019-03-17T06:37:40.490Z,10.72
2019-03-17T06:40:14.129Z,11.26
2019-03-17T06:42:42.792Z,11.60
2019-03-17T06:45:12.070Z,11.76
2019-03-17T06:47:40.783Z,11.62
2019-03-17T06:50:15.928Z,11.11
2019-03-17T06:52:44.581Z,11.30
2019-03-17T06:55:14.891Z,11.34
2019-03-17T06:57:43.475Z,11.67
2019-03-17T07:00:13.528Z,11.54
2019-03-17T07:02:42.537Z,12.15
2019-03-17T07:05:11.254Z,12.15
2019-03-17T07:07:44.453Z,11.53
2019-03-17T07:10:11.322Z,11.72
2019-03-17T07:12:39.993Z,11.82
2019-03-17T07:15:12.284Z,12.14
2019-03-17T07:17:41.524Z,11.84
2019-03-17T07:20:14.385Z,12.21
2019-03-17T07:22:43.036Z,12.53
2019-03-17T07:25:12.022Z,12.01
2019-03-17T07:27:40.695Z,12.49
2019-03-17T07:30:12.743Z,12.78
2019-03-17T07:32:42.898Z,12.78
2019-03-17T07:35:11.482Z,12.56
2019-03-17T07:37:40.129Z,12.86
2019-03-17T07:40:11.311Z,13.18
2019-03-17T07:42:39.967Z,13.15
2019-03-17T07:45:10.107Z,13.41
2019-03-17T07:47:38.846Z,13.48
2019-03-17T07:50:14.808Z,13.72
2019-03-17T07:52:43.497Z,13.72
2019-03-17T07:55:12.148Z,13.66
2019-03-17T07:57:40.800Z,13.64
2019-03-17T08:00:14.760Z,14.03
2019-03-17T08:02:43.341Z,13.79
2019-03-17T08:05:12.001Z,14.35
2019-03-17T08:07:40.690Z,14.11
2019-03-17T08:10:14.146Z,13.41
2019-03-17T08:12:42.855Z,13.99
2019-03-17T08:15:14.932Z,13.91
2019-03-17T08:17:43.674Z,14.43
2019-03-17T08:20:12.929Z,14.38
2019-03-17T08:22:41.573Z,14.35
2019-03-17T08:25:11.526Z,15.17
2019-03-17T08:27:40.102Z,16.04
2019-03-17T08:30:14.303Z,15.83
2019-03-17T08:32:43.093Z,16.09
2019-03-17T08:35:12.916Z,16.38
2019-03-17T08:37:41.603Z,15.70
2019-03-17T08:40:12.934Z,15.73
2019-03-17T08:42:41.662Z,16.22
2019-03-17T08:45:14.325Z,16.62
2019-03-17T08:47:42.912Z,16.57
2019-03-17T08:50:13.244Z,16.63
2019-03-17T08:52:43.434Z,16.70
2019-03-17T08:55:13.284Z,16.01
2019-03-17T08:57:41.923Z,16.79
2019-03-17T09:00:13.191Z,17.61
2019-03-17T09:02:41.768Z,17.10
2019-03-17T09:05:10.519Z,16.98
2019-03-17T09:07:39.218Z,16.84
2019-03-17T09:10:10.766Z,17.11
2019-03-17T09:12:39.405Z,17.76
2019-03-17T09:15:08.172Z,18.06
2019-03-17T09:17:36.800Z,18.06
2019-03-17T09:20:07.904Z,18.19
2019-03-17T09:22:36.507Z,18.25
2019-03-17T09:25:06.750Z,18.67
2019-03-17T09:27:35.401Z,18.78
2019-03-17T09:30:05.415Z,18.50
2019-03-17T09:32:34.033Z,18.99
2019-03-17T09:35:02.676Z,19.19
2019-03-17T09:37:31.366Z,19.55
2019-03-17T09:39:59.937Z,19.27
2019-03-17T09:42:28.510Z,19.40
2019-03-17T09:44:57.194Z,19.88
2019-03-17T09:47:25.770Z,19.71
2019-03-17T09:49:54.350Z,20.07
2019-03-17T09:52:22.959Z,19.97
2019-03-17T09:54:51.592Z,20.50
2019-03-17T09:57:20.160Z,20.60
2019-03-17T09:59:48.817Z,20.07
2019-03-17T10:02:17.467Z,20.46
2019-03-17T10:04:46.114Z,20.30
2019-03-17T10:07:14.753Z,20.66
2019-03-17T10:09:43.398Z,21.07
2019-03-17T10:12:11.972Z,21.18
2019-03-17T10:14:40.590Z,21.21
2019-03-17T10:17:09.236Z,21.00
2019-03-17T10:19:37.887Z,21.13
2019-03-17T10:22:06.493Z,21.19
2019-03-17T10:24:35.084Z,21.07
2019-03-17T10:27:03.645Z,21.25
2019-03-17T10:29:32.353Z,21.09
2019-03-17T10:32:00.929Z,21.30
2019-03-17T10:34:29.588Z,21.57
2019-03-17T10:36:58.604Z,21.80
2019-03-17T10:39:27.226Z,21.55
2019-03-17T10:41:55.809Z,21.51
2019-03-17T10:44:24.418Z,21.52
2019-03-17T10:46:53.059Z,21.10
2019-03-17T10:49:21.653Z,21.30
2019-03-17T10:51:50.578Z,21.54
2019-03-17T10:54:19.274Z,21.51
2019-03-17T10:56:48.016Z,21.22
2019-03-17T10:59:16.642Z,20.90
2019-03-17T11:01:45.202Z,20.87
2019-03-17T11:04:13.880Z,20.85
2019-03-17T11:06:42.555Z,21.04
2019-03-17T11:09:11.242Z,21.46
2019-03-17T11:11:39.829Z,21.62
2019-03-17T11:14:08.507Z,21.73
2019-03-17T11:16:37.090Z,21.66
2019-03-17T11:19:05.752Z,21.49
2019-03-17T11:21:34.406Z,21.09
2019-03-17T11:24:03.058Z,21.39
2019-03-17T11:26:31.774Z,21.89
2019-03-17T11:29:00.345Z,21.54
2019-03-17T11:31:28.984Z,21.80
2019-03-17T11:33:57.682Z,21.80
2019-03-17T11:36:26.284Z,22.09
2019-03-17T11:38:54.876Z,22.06
2019-03-17T11:41:23.561Z,22.27
2019-03-17T11:43:52.216Z,22.18
2019-03-17T11:46:20.863Z,22.24
2019-03-17T11:48:49.564Z,22.50
2019-03-17T11:51:18.216Z,22.64
2019-03-17T11:53:46.868Z,22.62
2019-03-17T11:56:15.661Z,22.68
2019-03-17T11:58:44.200Z,22.41
2019-03-17T12:01:12.849Z,22.44
2019-03-17T12:03:41.531Z,22.37
2019-03-17T12:06:10.211Z,22.44
2019-03-17T12:08:38.996Z,22.53
2019-03-17T12:11:07.724Z,22.50
2019-03-17T12:13:36.554Z,22.55
2019-03-17T12:16:05.207Z,22.52
2019-03-17T12:18:33.831Z,22.59
2019-03-17T12:21:02.586Z,22.98
2019-03-17T12:23:31.227Z,22.60
2019-03-17T12:25:59.902Z,22.98
2019-03-17T12:28:28.624Z,22.93
2019-03-17T12:30:57.203Z,22.76
2019-03-17T12:33:25.777Z,22.79
2019-03-17T12:35:54.811Z,22.19
2019-03-17T12:38:23.449Z,22.49
2019-03-17T12:40:52.044Z,22.69
2019-03-17T12:43:20.717Z,22.52
2019-03-17T12:45:49.321Z,22.18
2019-03-17T12:48:17.920Z,22.36
2019-03-17T12:50:46.604Z,22.44
2019-03-17T12:53:15.264Z,22.28
2019-03-17T12:55:43.922Z,22.64
2019-03-17T12:58:14.743Z,23.07
2019-03-17T13:00:42.993Z,23.30
2019-03-17T13:03:11.528Z,23.03
2019-03-17T13:05:40.226Z,22.84
2019-03-17T13:08:08.884Z,22.69
2019-03-17T13:10:37.491Z,22.63
2019-03-17T13:13:06.209Z,22.58
2019-03-17T13:15:34.840Z,22.75
2019-03-17T13:18:03.486Z,22.77
2019-03-17T13:20:32.236Z,22.75
2019-03-17T13:23:00.876Z,22.80
2019-03-17T13:25:29.548Z,22.76
2019-03-17T13:27:58.276Z,22.79
2019-03-17T13:30:26.863Z,23.13
2019-03-17T13:32:55.514Z,23.34
2019-03-17T13:35:24.217Z,23.27
2019-03-17T13:37:52.943Z,23.28
2019-03-17T13:40:29.469Z,23.12
2019-03-17T13:42:52.401Z,23.14
2019-03-17T13:45:21.012Z,23.39
2019-03-17T13:47:49.652Z,23.62
2019-03-17T13:50:20.284Z,23.19
2019-03-17T13:52:49.001Z,23.10
2019-03-17T13:55:17.847Z,23.19
2019-03-17T13:58:04.205Z,23.14
2019-03-17T14:00:32.841Z,23.11
2019-03-17T14:03:01.486Z,23.06
2019-03-17T14:05:30.631Z,23.11
2019-03-17T14:07:59.273Z,23.17
2019-03-17T14:10:40.045Z,23.37
2019-03-17T14:12:58.463Z,23.36
2019-03-17T14:15:28.061Z,23.18
2019-03-17T14:17:56.713Z,23.27
2019-03-17T14:20:25.420Z,23.38
2019-03-17T14:22:54.055Z,23.28
2019-03-17T14:25:28.206Z,23.28
2019-03-17T14:27:56.890Z,23.33
2019-03-17T14:30:25.563Z,23.17
2019-03-17T14:32:54.287Z,23.32
2019-03-17T14:35:23.072Z,23.19
2019-03-17T14:37:52.745Z,23.10
2019-03-17T14:40:21.478Z,22.90
2019-03-17T14:42:51.185Z,22.86
2019-03-17T14:45:19.900Z,23.01
2019-03-17T14:47:48.657Z,22.94
2019-03-17T14:50:21.544Z,23.03
2019-03-17T14:52:50.210Z,23.18
2019-03-17T14:55:19.060Z,22.95
2019-03-17T14:57:47.809Z,22.92
2019-03-17T15:00:21.615Z,22.93
2019-03-17T15:02:50.371Z,22.53
2019-03-17T15:05:19.133Z,22.65
2019-03-17T15:07:49.241Z,22.63
2019-03-17T15:10:21.994Z,22.74
2019-03-17T15:12:50.723Z,22.56
2019-03-17T15:15:23.128Z,22.69
2019-03-17T15:17:51.879Z,22.57
2019-03-17T15:20:25.611Z,22.44
2019-03-17T15:22:54.248Z,22.44
2019-03-17T15:25:24.221Z,22.49
2019-03-17T15:27:52.902Z,22.35
2019-03-17T15:30:29.375Z,22.23
2019-03-17T15:32:58.190Z,22.38
2019-03-17T15:35:27.052Z,22.36
2019-03-17T15:37:55.837Z,22.27
2019-03-17T15:40:24.534Z,22.23
2019-03-17T15:42:53.193Z,22.06
2019-03-17T15:45:23.091Z,22.09
2019-03-17T15:47:51.944Z,21.90
2019-03-17T15:50:27.941Z,21.88
2019-03-17T15:52:56.628Z,21.78
2019-03-17T15:55:25.262Z,21.72
2019-03-17T15:57:55.519Z,21.75
2019-03-17T16:00:27.355Z,21.76
2019-03-17T16:02:55.991Z,21.48
2019-03-17T16:05:24.640Z,21.41
2019-03-17T16:07:53.448Z,21.35
2019-03-17T16:10:29.575Z,21.23
2019-03-17T16:12:58.255Z,21.10
2019-03-17T16:15:26.893Z,21.04
2019-03-17T16:17:55.717Z,20.90
2019-03-17T16:20:26.483Z,20.79
2019-03-17T16:22:55.131Z,20.78
2019-03-17T16:25:25.830Z,20.70
2019-03-17T16:27:54.962Z,20.55
2019-03-17T16:30:28.331Z,20.20
2019-03-17T16:32:56.974Z,19.77
2019-03-17T16:35:27.068Z,19.24
2019-03-17T16:37:55.729Z,18.92
2019-03-17T16:40:31.585Z,18.85
2019-03-17T16:43:01.271Z,18.72
2019-03-17T16:45:29.915Z,18.60
2019-03-17T16:47:58.988Z,18.35
2019-03-17T16:50:30.831Z,18.28
2019-03-17T16:52:59.726Z,18.24
2019-03-17T16:55:36.657Z,18.23
2019-03-17T16:58:08.945Z,18.11
2019-03-17T17:00:39.640Z,17.96
2019-03-17T17:03:08.291Z,17.94
2019-03-17T17:05:37.009Z,17.62
2019-03-17T17:08:05.660Z,17.59
2019-03-17T17:10:34.322Z,17.47
2019-03-17T17:13:03.209Z,17.45
2019-03-17T17:15:33.215Z,17.42
2019-03-17T17:18:01.865Z,17.31
2019-03-17T17:20:32.603Z,17.17
2019-03-17T17:23:06.719Z,17.08
2019-03-17T17:25:35.356Z,17.05
2019-03-17T17:28:04.654Z,16.99
2019-03-17T17:30:33.309Z,16.79
2019-03-17T17:33:02.019Z,16.66
2019-03-17T17:35:30.718Z,16.60
2019-03-17T17:37:59.370Z,16.43
2019-03-17T17:40:28.627Z,16.44
2019-03-17T17:42:58.527Z,16.53
2019-03-17T17:45:27.271Z,16.49
2019-03-17T17:47:55.915Z,16.61
2019-03-17T17:50:30.215Z,16.55
2019-03-17T17:52:59.707Z,16.66
2019-03-17T17:55:28.362Z,16.58
2019-03-17T17:57:59.457Z,16.44
2019-03-17T18:00:45.084Z,16.20
2019-03-17T18:03:13.675Z,16.16
2019-03-17T18:05:42.326Z,16.25
2019-03-17T18:08:11.007Z,16.27
2019-03-17T18:10:40.762Z,16.06
2019-03-17T18:13:09.398Z,16.08
2019-03-17T18:15:38.085Z,16.13
2019-03-17T18:18:06.725Z,16.03
2019-03-17T18:20:35.305Z,15.91
2019-03-17T18:23:04.028Z,16.03
2019-03-17T18:25:32.670Z,15.96
2019-03-17T18:28:03.003Z,15.91
2019-03-17T18:30:31.689Z,15.82
2019-03-17T18:33:00.368Z,15.73
2019-03-17T18:35:29.012Z,15.74
2019-03-17T18:37:57.668Z,15.51
2019-03-17T18:40:26.473Z,15.39
2019-03-17T18:42:55.116Z,15.37
2019-03-17T18:45:32.107Z,15.41
2019-03-17T18:48:00.762Z,15.52
2019-03-17T18:50:29.417Z,15.62
2019-03-17T18:52:58.161Z,15.65
2019-03-17T18:55:26.800Z,15.56
2019-03-17T18:57:55.490Z,15.49
2019-03-17T19:00:25.331Z,15.45
2019-03-17T19:02:53.984Z,15.47
2019-03-17T19:05:22.685Z,15.45
2019-03-17T19:07:51.316Z,15.33
2019-03-17T19:10:21.441Z,15.31
2019-03-17T19:12:50.110Z,15.31
2019-03-17T19:15:23.348Z,15.34
2019-03-17T19:17:55.323Z,15.39
2019-03-17T19:20:26.014Z,15.46
2019-03-17T19:22:54.637Z,15.41
2019-03-17T19:25:26.885Z,15.33
2019-03-17T19:27:55.548Z,15.31
2019-03-17T19:30:24.348Z,15.31
2019-03-17T19:32:52.935Z,15.34
2019-03-17T19:35:21.585Z,15.32
2019-03-17T19:37:50.266Z,15.33
2019-03-17T19:40:23.253Z,15.28
2019-03-17T19:42:59.343Z,15.07
2019-03-17T19:45:22.341Z,14.87
2019-03-17T19:47:50.983Z,14.76
2019-03-17T19:50:21.283Z,14.74
2019-03-17T19:52:50.092Z,14.72
2019-03-17T19:55:18.838Z,14.80
2019-03-17T19:57:47.493Z,14.89
2019-03-17T20:00:17.289Z,14.88
2019-03-17T20:02:47.730Z,14.74
2019-03-17T20:05:16.645Z,14.74
2019-03-17T20:07:45.275Z,14.75
2019-03-17T20:10:22.666Z,14.67
2019-03-17T20:12:51.411Z,14.68
2019-03-17T20:15:20.066Z,14.50
2019-03-17T20:17:48.640Z,14.36
2019-03-17T20:20:17.417Z,14.37
2019-03-17T20:22:46.141Z,14.27
2019-03-17T20:25:14.812Z,14.20
2019-03-17T20:27:43.719Z,13.96
2019-03-17T20:30:16.445Z,13.97
2019-03-17T20:32:45.134Z,13.85
2019-03-17T20:35:14.240Z,13.91
2019-03-17T20:37:42.889Z,13.69
2019-03-17T20:40:16.178Z,13.41
2019-03-17T20:42:46.309Z,13.04
2019-03-17T20:45:15.972Z,12.91
2019-03-17T20:47:44.696Z,12.95
2019-03-17T20:50:15.542Z,13.31
2019-03-17T20:52:44.194Z,12.97
2019-03-17T20:55:12.952Z,12.82
2019-03-17T20:57:42.090Z,12.91
2019-03-17T21:00:18.596Z,12.91
2019-03-17T21:02:47.184Z,12.84
2019-03-17T21:05:15.846Z,12.92
2019-03-17T21:07:44.482Z,12.89
2019-03-17T21:10:17.321Z,12.79
2019-03-17T21:12:45.980Z,12.77
2019-03-17T21:15:16.018Z,12.70
2019-03-17T21:17:44.703Z,12.56
2019-03-17T21:20:15.794Z,12.70
2019-03-17T21:22:44.447Z,12.53
2019-03-17T21:25:13.198Z,12.56
2019-03-17T21:27:41.715Z,12.41
2019-03-17T21:30:14.708Z,12.35
2019-03-17T21:32:43.348Z,12.13
2019-03-17T21:35:11.925Z,11.97
2019-03-17T21:37:40.617Z,11.86
2019-03-17T21:40:11.361Z,12.01
2019-03-17T21:42:40.011Z,12.27
2019-03-17T21:45:10.798Z,11.83
2019-03-17T21:47:39.370Z,12.12
2019-03-17T21:50:10.924Z,12.04
2019-03-17T21:52:39.610Z,12.13
2019-03-17T21:55:09.962Z,11.94
2019-03-17T21:57:38.538Z,12.19
2019-03-17T22:00:10.130Z,12.18
2019-03-17T22:02:38.770Z,11.80
2019-03-17T22:05:07.427Z,12.08
2019-03-17T22:07:48.214Z,12.04
2019-03-17T22:10:09.432Z,11.79
2019-03-17T22:12:38.076Z,11.85
2019-03-17T22:15:09.786Z,11.69
2019-03-17T22:17:38.421Z,11.78
2019-03-17T22:20:09.655Z,11.89
2019-03-17T22:22:38.331Z,11.94
2019-03-17T22:25:09.169Z,11.79
2019-03-17T22:27:37.817Z,11.61
2019-03-17T22:30:22.085Z,11.48
2019-03-17T22:32:50.773Z,11.48
2019-03-17T22:35:19.506Z,11.47
2019-03-17T22:37:48.104Z,11.49
2019-03-17T22:40:17.576Z,11.45
2019-03-17T22:42:46.217Z,11.52
2019-03-17T22:45:16.002Z,11.53
2019-03-17T22:47:44.700Z,11.41
2019-03-17T22:50:16.248Z,11.46
2019-03-17T22:52:44.933Z,11.54
2019-03-17T22:55:14.683Z,11.66
2019-03-17T22:57:43.421Z,11.53
2019-03-17T23:00:36.476Z,11.35
2019-03-17T23:03:05.770Z,11.15
2019-03-17T23:05:34.417Z,11.35
2019-03-17T23:08:03.071Z,11.06
2019-03-17T23:10:31.921Z,10.99
2019-03-17T23:13:00.503Z,11.19
2019-03-17T23:15:29.151Z,11.21
2019-03-17T23:17:57.835Z,11.35
2019-03-17T23:20:26.490Z,11.22
2019-03-17T23:22:55.151Z,10.90
2019-03-17T23:25:23.843Z,10.83
2019-03-17T23:27:52.548Z,10.80
2019-03-17T23:30:22.402Z,11.05
2019-03-17T23:32:52.414Z,11.12
2019-03-17T23:35:21.059Z,11.05
2019-03-17T23:37:49.983Z,11.09
2019-03-17T23:40:19.163Z,11.08
2019-03-17T23:42:47.806Z,10.98
2019-03-17T23:45:16.383Z,11.23
2019-03-17T23:47:44.965Z,10.85
2019-03-17T23:50:14.651Z,10.69
2019-03-17T23:52:43.495Z,10.76
2019-03-17T23:55:14.656Z,10.73
2019-03-17T23:57:43.381Z,10.88
